createdAt,value
2023-01-13T00:01:38.257Z,1.75
2023-01-13T00:04:05.051Z,2.17
2023-01-13T00:06:31.650Z,2.58
2023-01-13T00:08:58.292Z,2.10
2023-01-13T00:11:26.260Z,2.40
2023-01-13T00:13:52.833Z,2.20
2023-01-13T00:16:20.292Z,2.40
2023-01-13T00:18:47.949Z,2.70
2023-01-13T00:21:18.349Z,1.90
2023-01-13T00:23:46.009Z,2.30
2023-01-13T00:26:16.728Z,2.42
2023-01-13T00:28:43.361Z,2.40
2023-01-13T00:31:15.643Z,2.75
2023-01-13T00:33:42.239Z,2.67
2023-01-13T00:36:12.587Z,2.67
2023-01-13T00:38:39.748Z,2.67
2023-01-13T00:41:11.607Z,2.88
2023-01-13T00:43:38.242Z,3.55
2023-01-13T00:46:06.892Z,2.90
2023-01-13T00:48:34.387Z,2.65
2023-01-13T00:51:03.880Z,2.85
2023-01-13T00:53:34.687Z,3.30
2023-01-13T00:56:14.257Z,3.55
2023-01-13T00:58:41.649Z,3.53
2023-01-13T01:01:14.370Z,3.80
2023-01-13T01:06:11.008Z,3.13
2023-01-13T01:08:37.612Z,3.92
2023-01-13T01:11:16.994Z,3.35
2023-01-13T01:13:44.697Z,3.33
2023-01-13T01:16:14.586Z,3.55
2023-01-13T01:18:43.728Z,3.33
2023-01-13T01:21:11.351Z,3.88
2023-01-13T01:23:38.659Z,3.53
2023-01-13T01:26:12.641Z,3.33
2023-01-13T01:28:39.797Z,3.63
2023-01-13T01:31:08.435Z,3.97
2023-01-13T01:33:35.105Z,4.65
2023-01-13T01:36:02.915Z,4.32
2023-01-13T01:38:30.600Z,4.10
2023-01-13T01:40:57.168Z,3.65
2023-01-13T01:44:00.116Z,3.88
2023-01-13T01:46:32.834Z,4.18
2023-01-13T01:49:08.794Z,4.35
2023-01-13T01:51:42.753Z,3.40
2023-01-13T01:54:13.142Z,4.25
2023-01-13T01:56:43.207Z,4.00
2023-01-13T01:59:10.286Z,4.47
2023-01-13T02:01:39.410Z,3.60
2023-01-13T02:04:13.727Z,3.15
2023-01-13T02:06:41.142Z,4.72
2023-01-13T02:09:08.424Z,3.60
2023-01-13T02:11:54.670Z,3.90
2023-01-13T02:14:26.594Z,4.00
2023-01-13T02:17:21.053Z,3.28
2023-01-13T02:20:28.540Z,5.05
2023-01-13T02:24:22.163Z,4.38
2023-01-13T02:27:07.662Z,3.22
2023-01-13T02:30:34.651Z,4.20
2023-01-13T02:33:26.777Z,3.65
2023-01-13T02:36:17.919Z,3.60
2023-01-13T02:38:56.871Z,4.78
2023-01-13T02:41:47.534Z,4.63
2023-01-13T02:44:20.330Z,4.35
2023-01-13T02:47:10.353Z,3.53
2023-01-13T02:49:47.770Z,4.85
2023-01-13T02:52:21.708Z,4.95
2023-01-13T02:54:55.037Z,5.18
2023-01-13T02:57:24.019Z,4.18
2023-01-13T02:59:54.254Z,4.35
2023-01-13T03:02:23.498Z,5.97
2023-01-13T03:04:58.400Z,3.83
2023-01-13T03:07:53.289Z,4.60
2023-01-13T03:10:48.171Z,5.38
2023-01-13T03:13:33.316Z,5.10
2023-01-13T03:16:15.137Z,4.57
2023-01-13T03:19:01.379Z,5.55
2023-01-13T03:21:51.494Z,4.50
2023-01-13T03:24:22.789Z,5.05
2023-01-13T03:27:02.727Z,5.15
2023-01-13T03:29:37.280Z,6.30
2023-01-13T03:32:11.796Z,4.65
2023-01-13T03:34:47.241Z,5.03
2023-01-13T03:37:16.842Z,4.50
2023-01-13T03:39:50.735Z,3.78
2023-01-13T03:42:23.126Z,4.55
2023-01-13T03:45:07.438Z,5.72
2023-01-13T03:47:33.911Z,3.47
2023-01-13T03:50:03.007Z,5.10
2023-01-13T03:52:34.627Z,4.75
2023-01-13T03:55:08.244Z,3.90
2023-01-13T03:57:42.857Z,5.65
2023-01-13T04:00:12.511Z,3.97
2023-01-13T04:03:02.621Z,3.20
2023-01-13T04:05:30.720Z,3.60
2023-01-13T04:08:21.532Z,3.88
2023-01-13T04:10:56.244Z,5.13
2023-01-13T04:13:26.094Z,3.58
2023-01-13T04:15:52.872Z,2.75
2023-01-13T04:18:24.543Z,2.90
2023-01-13T04:20:53.598Z,2.50
2023-01-13T04:23:21.664Z,2.20
2023-01-13T04:25:49.196Z,2.30
2023-01-13T04:28:16.201Z,3.17
2023-01-13T04:30:43.073Z,2.15
2023-01-13T04:33:13.523Z,2.38
2023-01-13T04:35:40.423Z,1.63
2023-01-13T04:38:12.849Z,1.42
2023-01-13T04:40:41.004Z,1.70
2023-01-13T04:43:08.376Z,1.70
2023-01-13T04:45:36.370Z,1.77
2023-01-13T04:48:03.315Z,1.83
2023-01-13T04:50:29.924Z,1.15
2023-01-13T04:52:56.935Z,1.40
2023-01-13T04:55:24.806Z,1.33
2023-01-13T04:57:51.750Z,1.60
2023-01-13T05:00:20.496Z,1.20
2023-01-13T05:02:49.661Z,1.80
2023-01-13T05:05:16.580Z,1.88
2023-01-13T05:07:43.098Z,2.28
2023-01-13T05:10:10.203Z,1.35
2023-01-13T05:12:55.450Z,1.70
2023-01-13T05:15:40.916Z,1.98
2023-01-13T05:18:07.846Z,1.90
2023-01-13T05:20:34.460Z,2.50
2023-01-13T05:23:19.582Z,2.42
2023-01-13T05:25:47.864Z,2.53
2023-01-13T05:28:14.852Z,2.30
2023-01-13T05:30:44.257Z,2.10
2023-01-13T05:33:12.212Z,2.17
2023-01-13T05:35:40.512Z,2.80
2023-01-13T05:38:07.114Z,3.00
2023-01-13T05:40:52.259Z,2.95
2023-01-13T05:43:24.578Z,2.65
2023-01-13T05:45:58.521Z,4.05
2023-01-13T05:48:34.422Z,2.40
2023-01-13T05:51:02.870Z,2.72
2023-01-13T05:53:29.914Z,3.22
2023-01-13T05:55:56.646Z,3.78
2023-01-13T05:58:25.125Z,3.38
2023-01-13T06:00:51.964Z,2.72
2023-01-13T06:03:21.977Z,2.58
2023-01-13T06:05:48.826Z,2.95
2023-01-13T06:08:16.576Z,2.60
2023-01-13T06:10:43.067Z,2.40
2023-01-13T06:13:10.497Z,2.75
2023-01-13T06:15:37.077Z,3.95
2023-01-13T06:18:04.874Z,3.30
2023-01-13T06:20:32.200Z,3.08
2023-01-13T06:22:59.098Z,2.85
2023-01-13T06:25:46.974Z,3.08
2023-01-13T06:28:13.542Z,3.20
2023-01-13T06:30:46.622Z,2.72
2023-01-13T06:33:18.483Z,2.67
2023-01-13T06:35:51.070Z,3.30
2023-01-13T06:38:19.766Z,2.47
2023-01-13T06:40:47.157Z,2.83
2023-01-13T06:43:17.445Z,3.00
2023-01-13T06:45:53.353Z,2.75
2023-01-13T06:48:23.441Z,3.17
2023-01-13T06:50:50.068Z,3.40
2023-01-13T06:53:16.649Z,2.33
2023-01-13T06:55:43.212Z,2.63
2023-01-13T06:58:09.822Z,3.05
2023-01-13T07:00:37.230Z,3.10
2023-01-13T07:03:15.039Z,2.55
2023-01-13T07:05:43.691Z,3.28
2023-01-13T07:08:10.696Z,2.72
2023-01-13T07:10:38.015Z,2.90
2023-01-13T07:13:23.905Z,3.55
2023-01-13T07:15:54.737Z,3.05
2023-01-13T07:18:21.403Z,2.63
2023-01-13T07:21:08.546Z,2.83
2023-01-13T07:23:37.662Z,3.33
2023-01-13T07:26:04.606Z,3.47
2023-01-13T07:28:32.194Z,3.90
2023-01-13T07:30:59.161Z,3.58
2023-01-13T07:33:26.109Z,3.38
2023-01-13T07:36:01.369Z,2.88
2023-01-13T07:38:28.302Z,2.85
2023-01-13T07:40:54.832Z,3.15
2023-01-13T07:43:33.915Z,4.13
2023-01-13T07:46:04.386Z,2.80
2023-01-13T07:48:32.903Z,3.28
2023-01-13T07:51:04.062Z,3.38
2023-01-13T07:53:30.604Z,3.95
2023-01-13T07:55:58.501Z,3.83
2023-01-13T07:58:26.085Z,3.28
2023-01-13T08:00:53.422Z,3.83
2023-01-13T08:03:20.712Z,4.18
2023-01-13T08:05:47.413Z,3.50
2023-01-13T08:08:14.665Z,3.13
2023-01-13T08:10:41.517Z,4.30
2023-01-13T08:13:18.460Z,3.50
2023-01-13T08:15:47.017Z,3.75
2023-01-13T08:18:13.824Z,3.25
2023-01-13T08:20:40.486Z,3.45
2023-01-13T08:23:07.664Z,2.63
2023-01-13T08:25:34.596Z,3.05
2023-01-13T08:28:01.168Z,3.75
2023-01-13T08:30:28.499Z,3.33
2023-01-13T08:32:55.261Z,3.25
2023-01-13T08:35:22.440Z,3.75
2023-01-13T08:37:50.029Z,3.40
2023-01-13T08:40:18.091Z,3.85
2023-01-13T08:42:45.924Z,2.97
2023-01-13T08:45:14.046Z,3.63
2023-01-13T08:47:40.642Z,3.28
2023-01-13T08:50:08.030Z,3.35
2023-01-13T08:52:35.307Z,3.22
2023-01-13T08:55:01.975Z,3.22
2023-01-13T08:57:28.727Z,3.80
2023-01-13T08:59:55.719Z,4.15
2023-01-13T09:02:24.041Z,3.20
2023-01-13T09:04:51.223Z,3.25
2023-01-13T09:07:18.411Z,3.85
2023-01-13T09:09:45.044Z,3.35
2023-01-13T09:12:31.904Z,3.67
2023-01-13T09:14:58.581Z,4.00
2023-01-13T09:17:25.104Z,2.92
2023-01-13T09:19:51.864Z,3.72
2023-01-13T09:22:20.103Z,4.07
2023-01-13T09:24:46.866Z,3.83
2023-01-13T09:27:15.193Z,4.32
2023-01-13T09:29:42.051Z,4.38
2023-01-13T09:32:12.235Z,4.82
2023-01-13T09:34:57.401Z,4.05
2023-01-13T09:37:24.368Z,3.53
2023-01-13T09:39:50.923Z,4.38
2023-01-13T09:42:45.047Z,5.00
2023-01-13T09:45:23.252Z,3.90
2023-01-13T09:47:51.791Z,3.72
2023-01-13T09:50:20.516Z,3.42
2023-01-13T09:52:47.027Z,3.80
2023-01-13T09:55:17.249Z,5.00
2023-01-13T09:57:43.953Z,5.18
2023-01-13T10:00:13.908Z,3.97
2023-01-13T10:03:04.246Z,4.45
2023-01-13T10:05:36.840Z,3.92
2023-01-13T10:10:48.872Z,3.70
2023-01-13T10:13:25.103Z,3.50
2023-01-13T10:16:01.994Z,3.65
2023-01-13T10:18:41.524Z,4.07
2023-01-13T10:21:24.734Z,4.13
2023-01-13T10:24:07.155Z,4.05
2023-01-13T10:26:44.643Z,4.55
2023-01-13T10:29:29.069Z,3.85
2023-01-13T10:31:58.273Z,4.25
2023-01-13T10:34:26.357Z,4.40
2023-01-13T10:37:00.962Z,4.25
2023-01-13T10:39:28.005Z,4.25
2023-01-13T10:42:25.336Z,3.63
2023-01-13T10:44:54.397Z,4.43
2023-01-13T10:47:30.443Z,4.60
2023-01-13T10:50:09.678Z,4.32
2023-01-13T10:52:42.766Z,3.63
2023-01-13T10:55:33.358Z,3.58
2023-01-13T10:58:20.223Z,4.57
2023-01-13T11:00:48.288Z,4.20
2023-01-13T11:03:23.550Z,4.03
2023-01-13T11:05:55.989Z,4.45
2023-01-13T11:08:31.978Z,3.83
2023-01-13T11:10:59.835Z,3.55
2023-01-13T11:13:30.208Z,4.07
2023-01-13T11:16:16.508Z,3.83
2023-01-13T11:19:11.630Z,4.28
2023-01-13T11:21:43.822Z,4.40
2023-01-13T11:24:42.271Z,4.55
2023-01-13T11:27:17.531Z,3.92
2023-01-13T11:30:11.960Z,3.53
2023-01-13T11:33:15.707Z,4.55
2023-01-13T11:35:47.315Z,3.92
2023-01-13T11:38:33.739Z,4.13
2023-01-13T11:41:28.596Z,3.85
2023-01-13T11:44:12.701Z,3.90
2023-01-13T11:46:40.730Z,3.50
2023-01-13T11:49:16.913Z,4.22
2023-01-13T11:51:52.465Z,3.75
2023-01-13T11:54:28.099Z,3.55
2023-01-13T11:57:07.059Z,4.82
2023-01-13T12:00:01.289Z,4.15
2023-01-13T12:03:10.374Z,3.55
2023-01-13T12:05:40.391Z,3.63
2023-01-13T12:08:18.577Z,4.32
2023-01-13T12:10:45.055Z,4.75
2023-01-13T12:13:20.590Z,3.60
2023-01-13T12:16:06.861Z,3.72
2023-01-13T12:18:38.615Z,3.47
2023-01-13T12:21:12.406Z,3.20
2023-01-13T12:23:46.929Z,3.28
2023-01-13T12:26:16.652Z,2.63
2023-01-13T12:29:05.170Z,2.97
2023-01-13T12:31:36.623Z,3.65
2023-01-13T12:34:30.064Z,3.22
2023-01-13T12:37:16.063Z,3.15
2023-01-13T12:39:54.294Z,3.35
2023-01-13T12:42:50.957Z,3.72
2023-01-13T12:45:24.684Z,2.95
2023-01-13T12:47:51.501Z,3.95
2023-01-13T12:50:27.269Z,4.22
2023-01-13T12:52:55.904Z,3.28
2023-01-13T12:55:31.058Z,3.47
2023-01-13T12:58:06.628Z,4.38
2023-01-13T13:00:39.286Z,3.55
2023-01-13T13:06:07.306Z,6.35
2023-01-13T13:08:46.312Z,4.07
2023-01-13T13:11:32.727Z,4.68
2023-01-13T13:14:01.407Z,4.25
2023-01-13T13:16:29.384Z,7.68
2023-01-13T13:19:17.905Z,6.80
2023-01-13T13:22:07.083Z,4.30
2023-01-13T13:24:33.686Z,5.82
2023-01-13T13:27:16.615Z,4.80
2023-01-13T13:29:59.494Z,4.07
2023-01-13T13:32:38.259Z,3.97
2023-01-13T13:35:13.942Z,3.25
2023-01-13T13:38:20.921Z,4.10
2023-01-13T13:41:06.774Z,4.60
2023-01-13T13:43:58.944Z,3.08
2023-01-13T13:46:46.599Z,3.47
2023-01-13T13:49:17.894Z,3.80
2023-01-13T13:52:03.985Z,3.53
2023-01-13T13:54:32.360Z,3.28
2023-01-13T13:56:59.351Z,4.38
2023-01-13T13:59:30.543Z,3.65
2023-01-13T14:02:03.969Z,3.85
2023-01-13T14:04:33.730Z,3.33
2023-01-13T14:07:06.144Z,3.95
2023-01-13T14:09:44.005Z,3.67
2023-01-13T14:12:30.295Z,2.75
2023-01-13T14:14:57.541Z,3.55
2023-01-13T14:17:28.038Z,3.38
2023-01-13T14:20:05.353Z,3.50
2023-01-13T14:22:34.088Z,3.38
2023-01-13T14:25:02.053Z,3.50
2023-01-13T14:27:30.494Z,5.30
2023-01-13T14:29:59.367Z,3.45
2023-01-13T14:32:36.437Z,3.08
2023-01-13T14:35:06.460Z,3.10
2023-01-13T14:37:41.738Z,3.10
2023-01-13T14:40:33.354Z,2.63
2023-01-13T14:43:00.506Z,3.20
2023-01-13T14:45:27.198Z,3.67
2023-01-13T14:47:54.250Z,3.00
2023-01-13T14:50:28.085Z,3.38
2023-01-13T14:52:57.092Z,2.80
2023-01-13T14:55:38.478Z,3.20
2023-01-13T14:58:30.852Z,2.17
2023-01-13T15:01:25.511Z,3.47
2023-01-13T15:03:52.093Z,3.38
2023-01-13T15:06:24.252Z,3.05
2023-01-13T15:08:50.974Z,2.50
2023-01-13T15:11:25.066Z,2.88
2023-01-13T15:14:01.104Z,3.38
2023-01-13T15:16:29.296Z,2.92
2023-01-13T15:18:56.420Z,2.88
2023-01-13T15:21:23.292Z,2.55
2023-01-13T15:23:49.969Z,2.38
2023-01-13T15:26:21.699Z,3.20
2023-01-13T15:28:49.490Z,3.03
2023-01-13T15:31:16.451Z,3.20
2023-01-13T15:33:43.329Z,3.05
2023-01-13T15:36:28.565Z,4.03
2023-01-13T15:38:55.887Z,2.33
2023-01-13T15:41:42.635Z,2.92
2023-01-13T15:44:32.293Z,3.05
2023-01-13T15:47:06.269Z,3.35
2023-01-13T15:49:46.430Z,2.70
2023-01-13T15:52:21.809Z,3.00
2023-01-13T15:54:48.981Z,3.92
2023-01-13T15:57:22.086Z,5.03
2023-01-13T15:59:49.021Z,3.80
2023-01-13T16:02:18.204Z,3.17
2023-01-13T16:04:45.529Z,3.67
2023-01-13T16:07:15.072Z,4.05
2023-01-13T16:09:41.962Z,3.47
2023-01-13T16:12:08.486Z,3.58
2023-01-13T16:14:34.948Z,3.15
2023-01-13T16:17:03.126Z,3.60
2023-01-13T16:19:29.661Z,3.78
2023-01-13T16:21:58.798Z,3.15
2023-01-13T16:24:25.313Z,3.67
2023-01-13T16:26:51.849Z,3.70
2023-01-13T16:29:18.460Z,3.63
2023-01-13T16:31:45.025Z,4.07
2023-01-13T16:34:11.577Z,3.88
2023-01-13T16:36:38.163Z,3.63
2023-01-13T16:39:17.994Z,3.95
2023-01-13T16:41:44.544Z,3.83
2023-01-13T16:44:10.994Z,2.97
2023-01-13T16:46:37.458Z,4.63
2023-01-13T16:49:05.944Z,6.22
2023-01-13T16:51:33.519Z,3.70
2023-01-13T16:54:00.047Z,5.03
2023-01-13T16:56:32.029Z,4.03
2023-01-13T16:59:03.413Z,3.78
2023-01-13T17:01:32.274Z,3.00
2023-01-13T17:04:00.112Z,3.58
2023-01-13T17:06:40.762Z,3.47
2023-01-13T17:09:27.727Z,3.03
2023-01-13T17:11:54.899Z,3.72
2023-01-13T17:14:23.349Z,3.22
2023-01-13T17:16:51.967Z,4.13
2023-01-13T17:19:19.788Z,2.92
2023-01-13T17:21:47.146Z,2.95
2023-01-13T17:24:14.471Z,2.70
2023-01-13T17:26:51.327Z,4.05
2023-01-13T17:29:22.075Z,3.15
2023-01-13T17:31:50.316Z,3.70
2023-01-13T17:34:17.473Z,3.13
2023-01-13T17:36:43.995Z,3.25
2023-01-13T17:39:18.790Z,3.05
2023-01-13T17:41:46.040Z,2.88
2023-01-13T17:44:15.685Z,3.03
2023-01-13T17:46:42.944Z,3.08
2023-01-13T17:49:14.348Z,3.55
2023-01-13T17:51:41.169Z,2.65
2023-01-13T17:54:11.952Z,3.38
2023-01-13T17:56:40.393Z,2.95
2023-01-13T17:59:08.928Z,3.10
2023-01-13T18:01:36.747Z,4.60
2023-01-13T18:04:03.560Z,3.28
2023-01-13T18:06:30.559Z,4.30
2023-01-13T18:08:59.532Z,4.05
2023-01-13T18:11:26.902Z,4.13
2023-01-13T18:13:55.179Z,3.90
2023-01-13T18:16:21.988Z,3.00
2023-01-13T18:18:51.588Z,3.17
2023-01-13T18:21:42.782Z,3.17
2023-01-13T18:24:35.216Z,2.85
2023-01-13T18:27:22.427Z,2.65
2023-01-13T18:29:51.463Z,2.42
2023-01-13T18:32:18.944Z,2.67
2023-01-13T18:34:45.802Z,3.17
2023-01-13T18:37:13.995Z,3.83
2023-01-13T18:39:40.854Z,6.97
2023-01-13T18:42:27.515Z,4.57
2023-01-13T18:44:56.077Z,4.95
2023-01-13T18:47:28.648Z,4.10
2023-01-13T18:49:56.530Z,5.63
2023-01-13T18:52:24.444Z,4.13
2023-01-13T18:54:51.100Z,3.53
2023-01-13T18:57:17.947Z,3.55
2023-01-13T18:59:44.691Z,5.88
2023-01-13T19:02:16.785Z,3.78
2023-01-13T19:04:43.796Z,3.25
2023-01-13T19:07:21.707Z,3.72
2023-01-13T19:09:51.393Z,3.58
2023-01-13T19:12:25.913Z,4.00
2023-01-13T19:15:00.122Z,3.65
2023-01-13T19:17:33.612Z,4.20
2023-01-13T19:20:00.164Z,2.90
2023-01-13T19:22:30.282Z,4.13
2023-01-13T19:24:57.831Z,4.28
2023-01-13T19:27:25.178Z,3.33
2023-01-13T19:29:53.480Z,2.53
2023-01-13T19:32:22.295Z,2.70
2023-01-13T19:34:50.779Z,2.80
2023-01-13T19:37:18.388Z,3.70
2023-01-13T19:39:45.032Z,3.28
2023-01-13T19:42:31.174Z,3.33
2023-01-13T19:45:16.311Z,2.40
2023-01-13T19:47:45.238Z,3.03
2023-01-13T19:50:12.603Z,3.30
2023-01-13T19:52:39.173Z,2.72
2023-01-13T19:55:06.146Z,2.58
2023-01-13T19:57:32.742Z,2.30
2023-01-13T19:59:59.285Z,2.85
2023-01-13T20:02:28.795Z,3.17
2023-01-13T20:04:57.192Z,3.13
2023-01-13T20:07:29.760Z,2.35
2023-01-13T20:09:56.921Z,2.63
2023-01-13T20:12:28.485Z,4.03
2023-01-13T20:14:56.254Z,3.83
2023-01-13T20:17:23.165Z,2.63
2023-01-13T20:19:49.748Z,4.15
2023-01-13T20:22:16.256Z,2.83
2023-01-13T20:24:42.987Z,2.97
2023-01-13T20:27:09.607Z,3.70
2023-01-13T20:29:36.155Z,3.83
2023-01-13T20:32:02.917Z,2.80
2023-01-13T20:34:29.769Z,3.70
2023-01-13T20:36:56.491Z,4.07
2023-01-13T20:39:26.547Z,2.97
2023-01-13T20:42:12.020Z,3.28
2023-01-13T20:44:39.016Z,3.22
2023-01-13T20:47:05.616Z,3.25
2023-01-13T20:49:32.456Z,2.92
2023-01-13T20:51:59.021Z,3.20
2023-01-13T20:54:25.561Z,2.83
2023-01-13T20:56:53.080Z,3.08
2023-01-13T20:59:19.688Z,3.05
2023-01-13T21:01:46.236Z,3.75
2023-01-13T21:04:12.803Z,3.25
2023-01-13T21:06:41.565Z,3.30
2023-01-13T21:09:08.895Z,3.47
2023-01-13T21:11:54.127Z,3.45
2023-01-13T21:14:42.275Z,3.72
2023-01-13T21:17:31.140Z,3.10
2023-01-13T21:19:57.695Z,4.10
2023-01-13T21:22:24.589Z,3.63
2023-01-13T21:24:51.425Z,3.13
2023-01-13T21:27:18.218Z,3.22
2023-01-13T21:29:46.219Z,3.40
2023-01-13T21:32:14.108Z,3.78
2023-01-13T21:34:40.688Z,3.08
2023-01-13T21:37:07.633Z,3.17
2023-01-13T21:39:34.230Z,3.38
2023-01-13T21:42:19.437Z,3.88
2023-01-13T21:45:05.245Z,4.28
2023-01-13T21:47:50.245Z,3.83
2023-01-13T21:50:23.050Z,4.72
2023-01-13T21:52:52.551Z,4.30
2023-01-13T21:55:24.729Z,3.28
2023-01-13T21:57:54.263Z,3.78
2023-01-13T22:00:23.392Z,3.80
2023-01-13T22:02:50.146Z,3.30
2023-01-13T22:05:19.378Z,3.25
2023-01-13T22:07:45.972Z,3.75
2023-01-13T22:10:21.335Z,3.35
2023-01-13T22:12:48.420Z,3.63
2023-01-13T22:15:16.572Z,4.50
2023-01-13T22:17:45.380Z,3.28
2023-01-13T22:20:13.193Z,2.97
2023-01-13T22:22:40.217Z,3.30
2023-01-13T22:25:09.528Z,3.63
2023-01-13T22:27:41.023Z,3.40
2023-01-13T22:30:21.616Z,3.30
2023-01-13T22:32:48.168Z,2.78
2023-01-13T22:35:15.651Z,3.15
2023-01-13T22:37:42.889Z,3.53
2023-01-13T22:40:12.009Z,3.03
2023-01-13T22:42:40.268Z,3.30
2023-01-13T22:45:10.352Z,2.80
2023-01-13T22:47:36.918Z,2.97
2023-01-13T22:50:04.884Z,3.70
2023-01-13T22:52:33.363Z,3.38
2023-01-13T22:55:00.787Z,3.42
2023-01-13T22:57:35.980Z,3.35
2023-01-13T23:00:06.327Z,3.47
2023-01-13T23:02:34.468Z,3.45
2023-01-13T23:05:01.492Z,3.30
2023-01-13T23:07:28.170Z,4.10
2023-01-13T23:09:54.723Z,3.75
2023-01-13T23:12:21.319Z,3.83
2023-01-13T23:14:47.901Z,3.42
2023-01-13T23:17:14.490Z,4.32
2023-01-13T23:19:41.092Z,3.22
2023-01-13T23:22:07.624Z,3.90
2023-01-13T23:24:34.211Z,4.05
2023-01-13T23:27:00.846Z,3.90
2023-01-13T23:29:27.477Z,4.05
2023-01-13T23:31:53.947Z,4.03
2023-01-13T23:34:20.540Z,3.72
2023-01-13T23:36:47.091Z,4.45
2023-01-13T23:39:13.817Z,4.18
2023-01-13T23:41:40.423Z,3.30
2023-01-13T23:44:06.997Z,3.15
2023-01-13T23:46:35.148Z,3.20
2023-01-13T23:49:03.543Z,4.00
2023-01-13T23:51:30.478Z,3.30
2023-01-13T23:53:58.831Z,3.50
2023-01-13T23:56:30.488Z,3.70
2023-01-13T23:58:58.003Z,3.93
